Time;durP1;ratioP1;P1;durP2;ratioP2;P2;SDS_P1;SDS_P2;PMS_P1;PMS_P2;Temp;Humidity;BMP_temperature;BMP_pressure;BME280_temperature;BME280_humidity;BME280_pressure;Samples;Min_cycle;Max_cycle;Signal;HPM_P1;HPM_P2
2022/11/01 00:00:10;;;;;;;52.27;22.53;;;;;;;;;;4976086;28;20081;-63
2022/11/01 00:02:54;;;;;;;47.23;21.60;;;;;;;;;;4971058;28;20064;-62
2022/11/01 00:05:38;;;;;;;48.27;21.60;;;;;;;;;;4987214;28;20062;-62
2022/11/01 00:08:22;;;;;;;51.43;23.23;;;;;;;;;;4967616;28;20117;-62
2022/11/01 00:11:06;;;;;;;52.83;23.30;;;;;;;;;;4962203;28;20046;-62
2022/11/01 00:13:49;;;;;;;58.30;25.03;;;;;;;;;;4968235;28;20121;-63
2022/11/01 00:16:33;;;;;;;60.10;24.60;;;;;;;;;;4967795;28;20023;-62
2022/11/01 00:19:17;;;;;;;50.50;24.13;;;;;;;;;;4968030;28;20021;-61
2022/11/01 00:22:01;;;;;;;51.43;21.93;;;;;;;;;;4971621;28;20031;-63
2022/11/01 00:24:45;;;;;;;52.97;22.90;;;;;;;;;;4981564;28;20030;-62
2022/11/01 00:27:29;;;;;;;44.97;21.07;;;;;;;;;;4977859;28;20031;-62
2022/11/01 00:30:13;;;;;;;43.07;21.33;;;;;;;;;;4969443;28;20050;-62
2022/11/01 00:32:56;;;;;;;41.67;18.20;;;;;;;;;;4991123;28;20503;-63
2022/11/01 00:35:40;;;;;;;39.77;18.43;;;;;;;;;;4973266;28;20467;-63
2022/11/01 00:38:24;;;;;;;42.20;18.63;;;;;;;;;;4977535;28;20463;-63
2022/11/01 00:41:08;;;;;;;40.13;18.03;;;;;;;;;;4971934;28;20030;-63
2022/11/01 00:43:52;;;;;;;35.97;16.83;;;;;;;;;;4961685;28;20027;-63
2022/11/01 00:46:35;;;;;;;36.23;18.43;;;;;;;;;;4992015;28;20032;-62
2022/11/01 00:49:19;;;;;;;37.53;17.57;;;;;;;;;;4969695;28;20023;-63
2022/11/01 00:52:03;;;;;;;35.03;15.40;;;;;;;;;;4972106;28;20027;-62
2022/11/01 00:54:47;;;;;;;36.20;16.10;;;;;;;;;;4985654;28;20088;-63
2022/11/01 00:57:30;;;;;;;34.63;16.70;;;;;;;;;;4970200;28;20031;-62
2022/11/01 01:00:14;;;;;;;31.80;14.87;;;;;;;;;;4964663;28;20019;-63
2022/11/01 01:02:58;;;;;;;35.07;17.20;;;;;;;;;;4965450;28;20379;-63
2022/11/01 01:05:42;;;;;;;23.00;12.40;;;;;;;;;;4971007;28;20030;-63
2022/11/01 01:08:26;;;;;;;34.00;15.77;;;;;;;;;;4964730;28;21333;-63
2022/11/01 01:11:09;;;;;;;32.83;16.20;;;;;;;;;;4962917;28;20467;-62
2022/11/01 01:13:53;;;;;;;32.80;15.43;;;;;;;;;;4978950;28;20015;-63
2022/11/01 01:16:37;;;;;;;31.03;15.67;;;;;;;;;;4968120;28;20121;-62
2022/11/01 01:19:20;;;;;;;32.77;15.47;;;;;;;;;;4969412;28;20076;-62
2022/11/01 01:22:04;;;;;;;31.87;16.53;;;;;;;;;;4964685;28;20121;-62
2022/11/01 01:24:48;;;;;;;39.07;18.43;;;;;;;;;;4971925;28;20048;-62
2022/11/01 01:27:31;;;;;;;34.87;16.23;;;;;;;;;;4980491;28;20474;-63
2022/11/01 01:30:15;;;;;;;34.03;17.23;;;;;;;;;;4980277;28;20042;-62
2022/11/01 01:32:59;;;;;;;35.63;17.40;;;;;;;;;;4974510;28;20038;-62
2022/11/01 01:35:43;;;;;;;37.57;18.07;;;;;;;;;;4969756;28;20368;-63
2022/11/01 01:38:27;;;;;;;38.90;17.07;;;;;;;;;;4982754;28;20114;-62
2022/11/01 01:44:13;;;;;;;39.33;18.27;;;;;;;;;;4969593;28;20147;-62
2022/11/01 01:46:57;;;;;;;36.50;17.67;;;;;;;;;;4978911;28;20027;-63
2022/11/01 01:49:41;;;;;;;39.77;18.73;;;;;;;;;;4978973;28;20113;-62
2022/11/01 01:52:25;;;;;;;38.10;18.37;;;;;;;;;;4969699;28;20462;-62
2022/11/01 01:55:08;;;;;;;38.70;18.57;;;;;;;;;;4986787;28;20073;-63
2022/11/01 01:57:52;;;;;;;37.63;17.60;;;;;;;;;;4970886;28;20763;-63
2022/11/01 02:00:36;;;;;;;35.23;17.90;;;;;;;;;;4984453;28;20027;-62
2022/11/01 02:03:19;;;;;;;37.10;17.60;;;;;;;;;;4980970;28;20028;-63
2022/11/01 02:06:03;;;;;;;38.87;19.10;;;;;;;;;;4960038;28;20526;-63
2022/11/01 02:08:47;;;;;;;37.03;16.50;;;;;;;;;;4980383;28;20039;-62
2022/11/01 02:11:31;;;;;;;34.53;16.93;;;;;;;;;;4971613;28;20065;-63
2022/11/01 02:14:15;;;;;;;38.47;18.87;;;;;;;;;;4970455;28;20026;-62
2022/11/01 02:16:58;;;;;;;37.03;18.27;;;;;;;;;;4976616;28;20058;-63
2022/11/01 02:19:42;;;;;;;37.37;18.07;;;;;;;;;;4969283;28;20027;-62
2022/11/01 02:22:26;;;;;;;34.47;17.60;;;;;;;;;;4978328;28;20118;-62
2022/11/01 02:25:10;;;;;;;38.67;17.03;;;;;;;;;;4969415;28;20034;-63
2022/11/01 02:27:54;;;;;;;33.53;16.57;;;;;;;;;;4985238;28;20424;-63
2022/11/01 02:30:37;;;;;;;35.53;16.67;;;;;;;;;;4966168;28;20092;-62
2022/11/01 02:33:21;;;;;;;33.10;17.03;;;;;;;;;;4962812;28;20042;-62
2022/11/01 02:36:05;;;;;;;34.77;16.07;;;;;;;;;;4954719;28;20058;-63
2022/11/01 02:38:48;;;;;;;36.37;16.03;;;;;;;;;;4968233;28;20030;-62
2022/11/01 02:41:32;;;;;;;31.00;15.37;;;;;;;;;;4969218;28;20099;-62
2022/11/01 02:44:16;;;;;;;30.67;15.40;;;;;;;;;;4965253;28;20023;-62
2022/11/01 02:47:00;;;;;;;32.40;15.80;;;;;;;;;;4965196;28;20033;-63
2022/11/01 02:49:44;;;;;;;34.27;14.63;;;;;;;;;;4968165;28;20035;-62
2022/11/01 02:52:28;;;;;;;34.23;14.40;;;;;;;;;;4971434;28;20371;-63
2022/11/01 02:55:27;;;;;;;34.20;15.20;;;;;;;;;;4966047;28;20023;-63
2022/11/01 02:58:12;;;;;;;28.30;13.13;;;;;;;;;;4963870;28;20027;-62
2022/11/01 03:00:55;;;;;;;24.27;13.67;;;;;;;;;;4964616;28;20443;-63
2022/11/01 03:03:39;;;;;;;31.50;13.67;;;;;;;;;;4965081;28;20023;-63
2022/11/01 03:06:23;;;;;;;27.33;13.60;;;;;;;;;;4965426;28;20046;-62
2022/11/01 03:09:07;;;;;;;23.77;13.27;;;;;;;;;;4965949;28;20293;-62
2022/11/01 03:11:50;;;;;;;24.37;12.80;;;;;;;;;;4961706;28;20054;-62
2022/11/01 03:14:34;;;;;;;25.40;11.97;;;;;;;;;;4967352;28;20027;-63
2022/11/01 03:17:18;;;;;;;22.00;11.97;;;;;;;;;;4963802;28;20479;-62
2022/11/01 03:20:02;;;;;;;23.00;11.97;;;;;;;;;;4963489;28;20023;-63
2022/11/01 03:22:45;;;;;;;24.13;12.57;;;;;;;;;;4969534;28;20042;-63
2022/11/01 03:25:39;;;;;;;22.37;11.60;;;;;;;;;;4968299;28;20023;-62
2022/11/01 03:28:22;;;;;;;22.10;11.77;;;;;;;;;;4969670;28;20050;-62
2022/11/01 03:31:07;;;;;;;23.83;11.47;;;;;;;;;;4968406;28;20038;-63
2022/11/01 03:33:51;;;;;;;21.83;11.80;;;;;;;;;;4968142;28;20031;-62
2022/11/01 03:36:37;;;;;;;21.90;11.57;;;;;;;;;;4976335;28;20023;-62
2022/11/01 03:39:21;;;;;;;21.70;11.10;;;;;;;;;;4973617;28;20018;-62
2022/11/01 03:42:05;;;;;;;25.10;9.87;;;;;;;;;;4980737;28;20603;-63
2022/11/01 03:44:48;;;;;;;23.10;10.90;;;;;;;;;;4964043;28;20544;-62
2022/11/01 03:47:32;;;;;;;23.30;12.30;;;;;;;;;;4979872;28;20536;-62
2022/11/01 03:50:16;;;;;;;20.07;10.80;;;;;;;;;;4970704;28;20465;-62
2022/11/01 03:52:59;;;;;;;25.40;10.77;;;;;;;;;;4974651;28;20453;-62
2022/11/01 03:55:43;;;;;;;22.73;11.33;;;;;;;;;;4971578;28;20434;-62
2022/11/01 03:58:40;;;;;;;22.03;10.60;;;;;;;;;;4971439;28;20491;-62
2022/11/01 04:01:24;;;;;;;18.93;9.97;;;;;;;;;;4970279;28;20023;-62
2022/11/01 04:04:08;;;;;;;24.67;9.87;;;;;;;;;;4978319;28;20031;-62
2022/11/01 04:06:51;;;;;;;21.27;9.90;;;;;;;;;;4975316;28;20473;-62
2022/11/01 04:09:35;;;;;;;17.70;9.80;;;;;;;;;;4961837;28;20035;-63
2022/11/01 04:12:19;;;;;;;23.03;9.53;;;;;;;;;;4955838;28;20031;-64
2022/11/01 04:21:08;;;;;;;19.27;8.37;;;;;;;;;;4954180;28;20073;-62
2022/11/01 04:23:52;;;;;;;17.40;7.77;;;;;;;;;;4987453;28;20022;-62
2022/11/01 04:26:36;;;;;;;13.80;7.57;;;;;;;;;;4966230;28;20027;-62
2022/11/01 04:29:20;;;;;;;16.10;6.90;;;;;;;;;;4981289;28;20030;-62
2022/11/01 04:32:04;;;;;;;19.57;7.90;;;;;;;;;;4984629;28;20487;-63
2022/11/01 04:34:47;;;;;;;15.67;7.57;;;;;;;;;;4980098;28;20034;-63
2022/11/01 04:37:31;;;;;;;15.57;7.50;;;;;;;;;;4965865;28;20103;-62
2022/11/01 04:40:15;;;;;;;15.17;7.77;;;;;;;;;;4964174;28;20027;-62
2022/11/01 04:42:59;;;;;;;15.00;7.00;;;;;;;;;;4970423;28;20014;-62
2022/11/01 04:45:43;;;;;;;22.57;8.53;;;;;;;;;;4976271;28;20038;-62
2022/11/01 04:48:27;;;;;;;19.00;7.87;;;;;;;;;;4971668;28;20463;-62
2022/11/01 04:51:10;;;;;;;14.87;7.30;;;;;;;;;;4970940;28;20386;-63
2022/11/01 04:53:55;;;;;;;17.43;7.67;;;;;;;;;;4985586;28;20030;-62
2022/11/01 04:56:38;;;;;;;21.27;7.67;;;;;;;;;;4980736;28;20080;-62
2022/11/01 04:59:22;;;;;;;14.50;7.23;;;;;;;;;;4971349;28;20042;-62
2022/11/01 05:02:06;;;;;;;13.93;7.40;;;;;;;;;;4993681;28;20032;-62
2022/11/01 05:04:50;;;;;;;19.13;8.43;;;;;;;;;;4970654;28;20027;-63
2022/11/01 05:07:33;;;;;;;20.40;7.20;;;;;;;;;;4969572;28;20039;-62
2022/11/01 05:10:17;;;;;;;17.53;7.37;;;;;;;;;;4963345;28;20035;-62
2022/11/01 05:13:01;;;;;;;16.17;7.50;;;;;;;;;;4962317;28;20041;-63
2022/11/01 05:15:45;;;;;;;19.73;7.87;;;;;;;;;;4969339;28;20390;-61
2022/11/01 05:18:29;;;;;;;15.17;7.53;;;;;;;;;;4965584;28;20031;-62
2022/11/01 05:21:13;;;;;;;14.03;7.50;;;;;;;;;;4968929;28;20022;-62
2022/11/01 05:23:56;;;;;;;17.07;7.67;;;;;;;;;;4968116;28;20037;-62
2022/11/01 05:26:40;;;;;;;16.50;7.53;;;;;;;;;;4963178;28;20026;-63
2022/11/01 05:29:24;;;;;;;18.47;7.33;;;;;;;;;;4967488;28;20019;-62
2022/11/01 05:32:08;;;;;;;21.00;7.20;;;;;;;;;;4981053;28;20066;-62
2022/11/01 05:34:51;;;;;;;15.83;6.83;;;;;;;;;;4971844;28;20026;-63
2022/11/01 05:37:35;;;;;;;16.93;6.80;;;;;;;;;;4960419;28;20505;-62
2022/11/01 05:40:19;;;;;;;15.27;7.33;;;;;;;;;;4959675;28;20023;-64
2022/11/01 05:43:03;;;;;;;13.53;6.53;;;;;;;;;;4961548;28;20027;-62
2022/11/01 05:45:47;;;;;;;15.43;6.60;;;;;;;;;;4960166;28;20034;-63
2022/11/01 05:48:31;;;;;;;15.00;6.37;;;;;;;;;;4971622;28;20019;-62
2022/11/01 05:51:15;;;;;;;14.07;6.30;;;;;;;;;;4966559;28;20037;-62
2022/11/01 05:53:58;;;;;;;15.20;6.37;;;;;;;;;;4967449;28;20104;-62
2022/11/01 05:56:42;;;;;;;13.67;7.00;;;;;;;;;;4969898;28;20039;-62
2022/11/01 05:59:26;;;;;;;17.03;6.53;;;;;;;;;;4969412;28;20023;-62
2022/11/01 06:02:10;;;;;;;13.80;5.73;;;;;;;;;;4972526;28;20026;-63
2022/11/01 06:04:54;;;;;;;17.13;5.50;;;;;;;;;;4970879;28;20030;-62
2022/11/01 06:07:37;;;;;;;11.77;5.60;;;;;;;;;;4969442;28;20022;-62
2022/11/01 06:10:21;;;;;;;13.03;5.60;;;;;;;;;;4969176;28;20038;-63
2022/11/01 06:13:05;;;;;;;13.63;5.70;;;;;;;;;;4970624;28;20031;-62
2022/11/01 06:15:49;;;;;;;14.50;6.03;;;;;;;;;;4965233;28;20027;-62
2022/11/01 06:18:33;;;;;;;13.17;5.53;;;;;;;;;;4962664;28;21574;-62
2022/11/01 06:21:16;;;;;;;12.70;5.30;;;;;;;;;;4969071;28;20023;-61
2022/11/01 06:24:00;;;;;;;13.37;5.37;;;;;;;;;;4971261;28;20083;-62
2022/11/01 06:26:44;;;;;;;13.00;5.60;;;;;;;;;;4967618;28;20035;-62
2022/11/01 06:29:28;;;;;;;16.90;5.23;;;;;;;;;;4964978;28;20027;-62
2022/11/01 06:32:11;;;;;;;13.13;5.37;;;;;;;;;;4968747;28;20482;-63
2022/11/01 06:34:55;;;;;;;11.43;4.90;;;;;;;;;;4968963;28;20375;-62
2022/11/01 06:37:39;;;;;;;13.10;5.13;;;;;;;;;;4969085;28;20467;-62
2022/11/01 06:40:23;;;;;;;15.27;5.33;;;;;;;;;;4973072;28;20577;-62
2022/11/01 06:43:06;;;;;;;10.47;4.83;;;;;;;;;;4968808;28;20031;-62
2022/11/01 06:45:50;;;;;;;12.87;5.43;;;;;;;;;;4968277;28;20034;-62
2022/11/01 06:48:34;;;;;;;12.47;5.53;;;;;;;;;;4969160;28;20058;-62
2022/11/01 06:51:18;;;;;;;12.70;4.87;;;;;;;;;;4968254;28;20084;-62
2022/11/01 06:54:02;;;;;;;11.67;5.27;;;;;;;;;;4968595;28;20027;-63
2022/11/01 06:56:46;;;;;;;11.43;4.90;;;;;;;;;;4977285;28;20412;-62
2022/11/01 06:59:30;;;;;;;11.67;4.33;;;;;;;;;;4964931;28;20026;-62
2022/11/01 07:02:13;;;;;;;9.10;4.20;;;;;;;;;;4968504;28;20037;-63
2022/11/01 07:04:57;;;;;;;11.37;4.27;;;;;;;;;;4969780;28;20049;-62
2022/11/01 07:07:41;;;;;;;11.13;3.85;;;;;;;;;;4973639;28;20391;-63
2022/11/01 07:10:25;;;;;;;8.90;4.00;;;;;;;;;;4972074;28;20501;-63
2022/11/01 07:13:09;;;;;;;11.35;3.78;;;;;;;;;;4969697;28;20398;-62
2022/11/01 07:15:52;;;;;;;8.98;4.20;;;;;;;;;;4966387;28;20102;-62
2022/11/01 07:18:36;;;;;;;10.93;3.80;;;;;;;;;;4965672;28;20153;-63
2022/11/01 07:21:20;;;;;;;9.23;3.83;;;;;;;;;;4964996;28;20463;-62
2022/11/01 07:24:04;;;;;;;9.65;3.88;;;;;;;;;;4962900;28;20475;-63
2022/11/01 07:26:48;;;;;;;11.52;3.95;;;;;;;;;;4971225;28;20049;-63
2022/11/01 07:29:31;;;;;;;11.43;3.80;;;;;;;;;;4969071;28;20092;-62
2022/11/01 07:32:15;;;;;;;10.30;3.65;;;;;;;;;;4967954;28;20188;-63
2022/11/01 07:34:59;;;;;;;8.43;3.67;;;;;;;;;;4969945;28;20027;-63
2022/11/01 07:37:43;;;;;;;11.82;3.55;;;;;;;;;;4971849;28;20992;-62
2022/11/01 07:40:26;;;;;;;8.55;3.50;;;;;;;;;;4971953;28;20098;-62
2022/11/01 07:43:10;;;;;;;8.25;3.78;;;;;;;;;;4971559;28;20015;-63
2022/11/01 07:45:54;;;;;;;8.00;3.58;;;;;;;;;;4971350;28;20030;-64
2022/11/01 07:48:38;;;;;;;8.82;3.28;;;;;;;;;;4971286;28;20031;-63
2022/11/01 07:51:21;;;;;;;8.65;3.45;;;;;;;;;;4971383;28;20035;-63
2022/11/01 07:54:05;;;;;;;7.20;3.60;;;;;;;;;;4971383;28;20109;-62
2022/11/01 07:56:49;;;;;;;6.38;3.15;;;;;;;;;;4971303;28;20062;-63
2022/11/01 07:59:34;;;;;;;9.48;3.38;;;;;;;;;;4971637;28;20072;-62
2022/11/01 08:02:17;;;;;;;9.65;3.15;;;;;;;;;;4969624;28;20473;-64
2022/11/01 08:05:01;;;;;;;12.57;3.95;;;;;;;;;;4971268;28;20058;-63
2022/11/01 08:07:45;;;;;;;8.77;3.72;;;;;;;;;;4971314;28;20101;-63
2022/11/01 08:10:29;;;;;;;8.75;3.72;;;;;;;;;;4971438;28;20474;-63
2022/11/01 08:13:13;;;;;;;10.20;3.40;;;;;;;;;;4970693;28;20030;-64
2022/11/01 08:15:56;;;;;;;5.38;1.60;;;;;;;;;;4969984;28;20030;-63
2022/11/01 08:18:40;;;;;;;5.35;1.83;;;;;;;;;;4971048;28;20026;-63
2022/11/01 08:21:24;;;;;;;4.13;1.20;;;;;;;;;;4971069;28;20804;-64
2022/11/01 08:24:08;;;;;;;5.60;1.35;;;;;;;;;;4970946;28;20031;-63
2022/11/01 08:26:52;;;;;;;3.03;0.90;;;;;;;;;;4970946;28;20022;-63
2022/11/01 08:29:36;;;;;;;3.40;1.20;;;;;;;;;;4971032;28;20462;-63
2022/11/01 08:32:20;;;;;;;4.20;1.10;;;;;;;;;;4970496;28;20422;-63
2022/11/01 08:35:04;;;;;;;4.40;1.30;;;;;;;;;;4970495;28;20113;-63
2022/11/01 08:37:47;;;;;;;7.78;1.50;;;;;;;;;;4971002;28;20041;-64
2022/11/01 08:40:31;;;;;;;3.70;1.10;;;;;;;;;;4970641;28;20463;-63
2022/11/01 08:43:15;;;;;;;3.28;1.10;;;;;;;;;;4970912;28;20022;-64
2022/11/01 08:45:59;;;;;;;3.42;1.27;;;;;;;;;;4970534;28;20064;-63
2022/11/01 08:48:43;;;;;;;7.15;2.00;;;;;;;;;;4970758;28;20038;-62
2022/11/01 08:51:27;;;;;;;5.22;1.00;;;;;;;;;;4970654;28;20037;-63
2022/11/01 08:54:11;;;;;;;5.88;1.05;;;;;;;;;;4970815;28;20035;-63
2022/11/01 08:56:55;;;;;;;2.55;0.90;;;;;;;;;;4970503;28;20051;-63
2022/11/01 08:59:39;;;;;;;3.28;1.00;;;;;;;;;;4969319;28;20019;-62
2022/11/01 09:02:23;;;;;;;4.57;1.02;;;;;;;;;;4978102;28;20026;-63
2022/11/01 09:05:07;;;;;;;5.82;0.95;;;;;;;;;;4970454;28;20454;-63
2022/11/01 09:07:51;;;;;;;4.97;1.40;;;;;;;;;;4970638;28;20018;-62
2022/11/01 09:10:35;;;;;;;6.03;1.00;;;;;;;;;;4970547;28;20159;-63
2022/11/01 09:13:19;;;;;;;4.68;0.80;;;;;;;;;;4970265;28;20080;-63
2022/11/01 09:16:03;;;;;;;6.38;1.17;;;;;;;;;;4970369;28;20612;-63
2022/11/01 09:18:47;;;;;;;6.05;1.20;;;;;;;;;;4970423;28;20382;-63
2022/11/01 09:21:31;;;;;;;5.45;1.10;;;;;;;;;;4970369;28;20271;-64
2022/11/01 09:24:14;;;;;;;4.65;1.00;;;;;;;;;;4970482;28;20019;-63
2022/11/01 09:26:58;;;;;;;5.15;1.67;;;;;;;;;;4969727;28;20076;-64
2022/11/01 09:29:42;;;;;;;7.40;1.00;;;;;;;;;;4970204;28;20466;-63
2022/11/01 09:32:26;;;;;;;6.03;1.13;;;;;;;;;;4969511;28;20041;-63
2022/11/01 09:35:09;;;;;;;7.57;1.42;;;;;;;;;;4969946;28;20015;-63
2022/11/01 09:37:53;;;;;;;4.50;1.20;;;;;;;;;;4970080;28;20018;-63
2022/11/01 09:40:42;;;;;;;8.02;1.33;;;;;;;;;;4969770;28;20075;-63
2022/11/01 09:43:26;;;;;;;7.47;1.38;;;;;;;;;;4970276;28;20037;-62
2022/11/01 09:46:10;;;;;;;6.43;1.33;;;;;;;;;;4969640;28;20064;-63
2022/11/01 09:48:54;;;;;;;6.20;1.45;;;;;;;;;;4969637;28;20031;-63
2022/11/01 09:51:38;;;;;;;6.72;1.20;;;;;;;;;;4969820;28;20474;-63
2022/11/01 09:54:21;;;;;;;9.65;2.08;;;;;;;;;;4969598;28;20018;-62
2022/11/01 09:57:05;;;;;;;6.40;1.35;;;;;;;;;;4969718;28;20023;-62
2022/11/01 09:59:49;;;;;;;9.13;2.08;;;;;;;;;;4969374;28;20076;-63
2022/11/01 10:02:33;;;;;;;6.53;1.40;;;;;;;;;;4967020;28;20498;-64
2022/11/01 10:05:17;;;;;;;6.28;1.02;;;;;;;;;;4969530;28;20022;-64
2022/11/01 10:08:00;;;;;;;9.98;1.45;;;;;;;;;;4969367;28;20027;-63
2022/11/01 10:10:44;;;;;;;7.85;1.60;;;;;;;;;;4969480;28;20018;-62
2022/11/01 10:13:30;;;;;;;4.43;1.15;;;;;;;;;;4969461;28;20108;-63
2022/11/01 10:16:14;;;;;;;7.53;1.30;;;;;;;;;;4969138;28;20007;-63
2022/11/01 10:18:58;;;;;;;8.88;1.02;;;;;;;;;;4969221;28;20070;-64
2022/11/01 10:21:43;;;;;;;11.95;1.40;;;;;;;;;;4969432;28;20019;-65
2022/11/01 10:24:27;;;;;;;9.07;1.42;;;;;;;;;;4968954;28;20041;-64
2022/11/01 10:27:11;;;;;;;4.82;0.80;;;;;;;;;;4969036;28;20041;-64
2022/11/01 10:29:54;;;;;;;10.27;1.55;;;;;;;;;;4969297;28;20018;-64
2022/11/01 10:32:38;;;;;;;6.75;1.63;;;;;;;;;;4968890;28;20063;-63
2022/11/01 10:35:22;;;;;;;6.28;1.60;;;;;;;;;;4969278;28;20041;-64
2022/11/01 10:38:06;;;;;;;7.57;1.20;;;;;;;;;;4968559;28;20076;-64
2022/11/01 10:40:50;;;;;;;6.45;1.40;;;;;;;;;;4968696;28;20485;-63
2022/11/01 10:43:34;;;;;;;12.90;1.63;;;;;;;;;;4969134;28;20031;-65
2022/11/01 10:46:17;;;;;;;11.43;1.70;;;;;;;;;;4969203;28;20113;-63
2022/11/01 10:49:01;;;;;;;9.93;1.25;;;;;;;;;;4969154;28;20098;-64
2022/11/01 10:51:45;;;;;;;9.35;1.70;;;;;;;;;;4968163;28;20084;-64
2022/11/01 10:54:29;;;;;;;12.43;1.70;;;;;;;;;;4968977;28;20018;-63
2022/11/01 10:57:13;;;;;;;7.43;1.33;;;;;;;;;;4968645;28;20022;-64
2022/11/01 10:59:56;;;;;;;8.73;1.60;;;;;;;;;;4968897;28;20054;-64
2022/11/01 11:02:40;;;;;;;8.65;1.52;;;;;;;;;;4968778;28;20035;-63
2022/11/01 11:05:24;;;;;;;7.78;1.40;;;;;;;;;;4973486;28;20056;-64
2022/11/01 11:08:08;;;;;;;9.60;1.65;;;;;;;;;;4968764;28;20042;-64
2022/11/01 11:10:52;;;;;;;11.88;1.90;;;;;;;;;;4969104;28;20092;-63
2022/11/01 11:13:36;;;;;;;11.93;2.00;;;;;;;;;;4968435;28;20019;-63
2022/11/01 11:16:20;;;;;;;9.75;1.40;;;;;;;;;;4968596;28;20019;-64
2022/11/01 11:19:04;;;;;;;3.75;1.00;;;;;;;;;;4968585;28;20015;-63
2022/11/01 11:21:48;;;;;;;9.65;1.98;;;;;;;;;;4968711;28;20034;-64
2022/11/01 11:24:32;;;;;;;7.13;1.27;;;;;;;;;;4968704;28;20038;-64
2022/11/01 11:27:16;;;;;;;7.82;1.33;;;;;;;;;;4968727;28;20011;-64
2022/11/01 11:30:00;;;;;;;10.13;1.52;;;;;;;;;;4968306;28;20011;-64
2022/11/01 11:32:44;;;;;;;10.52;1.40;;;;;;;;;;4967575;28;20030;-63
2022/11/01 11:35:29;;;;;;;11.02;1.67;;;;;;;;;;4968315;28;20014;-63
2022/11/01 11:38:13;;;;;;;11.02;1.70;;;;;;;;;;4968410;28;20390;-64
2022/11/01 11:40:57;;;;;;;10.98;2.03;;;;;;;;;;4968426;28;20065;-63
2022/11/01 11:43:41;;;;;;;10.48;2.40;;;;;;;;;;4968629;28;20941;-63
2022/11/01 11:46:25;;;;;;;9.30;1.67;;;;;;;;;;4968638;28;20042;-64
2022/11/01 11:49:09;;;;;;;12.90;1.88;;;;;;;;;;4966523;28;20018;-63
2022/11/01 11:51:53;;;;;;;10.07;1.75;;;;;;;;;;4970628;28;20062;-64
2022/11/01 11:54:38;;;;;;;10.18;1.80;;;;;;;;;;4971796;28;20027;-63
2022/11/01 11:57:23;;;;;;;9.57;1.75;;;;;;;;;;4971236;28;20019;-64
2022/11/01 12:00:08;;;;;;;14.77;1.80;;;;;;;;;;4971340;28;20094;-64
2022/11/01 12:02:52;;;;;;;10.15;1.95;;;;;;;;;;4971516;28;20031;-64
2022/11/01 12:05:36;;;;;;;8.27;1.60;;;;;;;;;;4970906;28;20026;-64
2022/11/01 12:08:20;;;;;;;9.75;1.13;;;;;;;;;;4971224;28;20390;-63
2022/11/01 12:11:04;;;;;;;13.10;1.80;;;;;;;;;;4970797;28;20062;-63
2022/11/01 12:13:47;;;;;;;9.10;1.75;;;;;;;;;;4970685;28;20057;-64
2022/11/01 12:16:31;;;;;;;14.77;1.90;;;;;;;;;;4970750;28;20027;-64
2022/11/01 12:19:15;;;;;;;13.18;2.00;;;;;;;;;;4970952;28;20023;-63
2022/11/01 12:21:59;;;;;;;11.05;1.98;;;;;;;;;;4970465;28;20382;-64
2022/11/01 12:24:43;;;;;;;10.05;1.85;;;;;;;;;;4970606;28;20106;-64
2022/11/01 12:27:27;;;;;;;9.77;2.22;;;;;;;;;;4970492;28;20014;-64
2022/11/01 12:30:10;;;;;;;11.27;1.70;;;;;;;;;;4967952;28;20035;-63
2022/11/01 12:32:54;;;;;;;13.10;1.90;;;;;;;;;;4967697;28;20037;-63
2022/11/01 12:35:38;;;;;;;12.02;1.85;;;;;;;;;;4970948;28;20041;-64
2022/11/01 12:38:22;;;;;;;9.23;2.08;;;;;;;;;;4971080;28;20015;-63
2022/11/01 12:41:05;;;;;;;17.20;1.85;;;;;;;;;;4970708;28;20096;-63
2022/11/01 12:43:49;;;;;;;12.32;1.90;;;;;;;;;;4970943;28;20697;-64
2022/11/01 12:46:33;;;;;;;13.38;1.83;;;;;;;;;;4970474;28;20037;-64
2022/11/01 12:49:17;;;;;;;11.10;2.05;;;;;;;;;;4970312;28;20064;-62
2022/11/01 12:52:01;;;;;;;11.18;1.70;;;;;;;;;;4969378;28;20101;-63
2022/11/01 12:54:44;;;;;;;9.98;1.52;;;;;;;;;;4970797;28;20031;-64
2022/11/01 12:57:28;;;;;;;11.32;1.67;;;;;;;;;;4970109;28;20018;-64
2022/11/01 13:00:14;;;;;;;8.98;1.58;;;;;;;;;;4970368;28;20019;-63
2022/11/01 13:02:58;;;;;;;9.95;1.67;;;;;;;;;;4970194;28;20057;-64
2022/11/01 13:05:42;;;;;;;9.70;1.65;;;;;;;;;;4970456;28;20027;-63
2022/11/01 13:08:26;;;;;;;8.45;1.95;;;;;;;;;;4970504;28;20019;-63
2022/11/01 13:11:09;;;;;;;10.93;1.70;;;;;;;;;;4974358;28;20023;-63
2022/11/01 13:13:53;;;;;;;7.38;1.25;;;;;;;;;;4971107;28;20389;-64
2022/11/01 13:16:38;;;;;;;7.50;1.63;;;;;;;;;;4970390;28;20511;-63
2022/11/01 13:19:22;;;;;;;11.25;1.75;;;;;;;;;;4970462;28;20019;-63
2022/11/01 13:22:06;;;;;;;10.98;2.25;;;;;;;;;;4969868;28;20065;-63
2022/11/01 13:24:49;;;;;;;10.25;1.40;;;;;;;;;;4970189;28;20015;-64
2022/11/01 13:27:33;;;;;;;10.10;1.38;;;;;;;;;;4970128;28;20019;-64
2022/11/01 13:30:17;;;;;;;14.90;2.15;;;;;;;;;;4969849;28;20023;-65
2022/11/01 13:33:02;;;;;;;10.02;2.20;;;;;;;;;;4968538;28;20474;-63
2022/11/01 13:35:46;;;;;;;7.53;1.30;;;;;;;;;;4969773;28;20176;-64
2022/11/01 13:38:29;;;;;;;12.93;1.98;;;;;;;;;;4969796;28;20026;-64
2022/11/01 13:41:18;;;;;;;9.68;1.75;;;;;;;;;;4970089;28;20371;-64
2022/11/01 13:44:02;;;;;;;8.30;1.42;;;;;;;;;;4969740;28;20018;-65
2022/11/01 13:46:46;;;;;;;8.95;1.40;;;;;;;;;;4970015;28;20044;-63
2022/11/01 13:49:29;;;;;;;8.48;1.67;;;;;;;;;;4969867;28;20500;-63
2022/11/01 13:52:13;;;;;;;9.15;1.42;;;;;;;;;;4969147;28;20033;-64
2022/11/01 13:54:57;;;;;;;7.55;1.40;;;;;;;;;;4969489;28;20019;-63
2022/11/01 13:57:41;;;;;;;8.00;1.25;;;;;;;;;;4969161;28;20098;-64
2022/11/01 14:00:24;;;;;;;12.85;2.28;;;;;;;;;;4966803;28;20466;-63
2022/11/01 14:03:08;;;;;;;8.45;1.40;;;;;;;;;;4968530;28;20054;-64
2022/11/01 14:05:52;;;;;;;9.23;1.83;;;;;;;;;;4969105;28;20023;-63
2022/11/01 14:08:36;;;;;;;10.70;1.48;;;;;;;;;;4969068;28;20113;-64
2022/11/01 14:11:19;;;;;;;9.80;1.60;;;;;;;;;;4968858;28;20025;-63
2022/11/01 14:14:03;;;;;;;13.45;1.63;;;;;;;;;;4968169;28;20098;-62
2022/11/01 14:16:47;;;;;;;10.45;1.63;;;;;;;;;;4968850;28;20049;-63
2022/11/01 14:19:31;;;;;;;11.73;2.22;;;;;;;;;;4967715;28;20394;-63
2022/11/01 14:22:15;;;;;;;7.43;1.40;;;;;;;;;;4968955;28;20036;-63
2022/11/01 14:24:59;;;;;;;12.38;1.55;;;;;;;;;;4969130;28;20076;-63
2022/11/01 14:27:43;;;;;;;11.15;1.50;;;;;;;;;;4968965;28;20106;-62
2022/11/01 14:30:27;;;;;;;11.45;1.83;;;;;;;;;;4967960;28;20066;-64
2022/11/01 14:33:10;;;;;;;9.13;1.38;;;;;;;;;;4969270;28;20647;-63
2022/11/01 14:35:56;;;;;;;8.75;1.63;;;;;;;;;;4968836;28;20051;-63
2022/11/01 14:38:40;;;;;;;8.55;1.70;;;;;;;;;;4968671;28;20019;-62
2022/11/01 14:41:23;;;;;;;9.27;1.60;;;;;;;;;;4969161;28;20466;-63
2022/11/01 14:44:10;;;;;;;8.35;1.55;;;;;;;;;;4969114;28;20383;-63
2022/11/01 14:46:54;;;;;;;14.02;2.85;;;;;;;;;;4969138;28;20027;-63
2022/11/01 14:49:38;;;;;;;11.27;2.38;;;;;;;;;;4968836;28;20031;-63
2022/11/01 14:52:23;;;;;;;11.57;1.83;;;;;;;;;;4969098;28;20038;-62
2022/11/01 14:55:07;;;;;;;10.38;2.00;;;;;;;;;;4968614;28;20047;-63
2022/11/01 14:57:51;;;;;;;12.23;1.55;;;;;;;;;;4968152;28;20034;-64
2022/11/01 15:00:35;;;;;;;11.30;1.70;;;;;;;;;;4968914;28;20046;-63
2022/11/01 15:03:19;;;;;;;16.38;2.28;;;;;;;;;;4969028;28;20094;-63
2022/11/01 15:06:03;;;;;;;8.38;1.65;;;;;;;;;;4968787;28;20027;-62
2022/11/01 15:08:47;;;;;;;9.45;1.42;;;;;;;;;;4968808;28;20108;-62
2022/11/01 15:11:31;;;;;;;9.07;1.50;;;;;;;;;;4968629;28;20483;-63
2022/11/01 15:14:15;;;;;;;9.65;1.85;;;;;;;;;;4976273;28;20030;-63
2022/11/01 15:16:58;;;;;;;7.85;1.50;;;;;;;;;;4969057;28;20110;-63
2022/11/01 15:19:44;;;;;;;12.52;2.53;;;;;;;;;;4968895;28;20015;-63
2022/11/01 15:22:28;;;;;;;9.85;1.52;;;;;;;;;;4968771;28;20718;-64
2022/11/01 15:25:12;;;;;;;14.57;2.60;;;;;;;;;;4970117;28;20019;-62
2022/11/01 15:27:56;;;;;;;15.35;2.13;;;;;;;;;;4971637;28;20035;-63
2022/11/01 15:30:40;;;;;;;11.45;1.50;;;;;;;;;;4969188;28;20500;-63
2022/11/01 15:33:23;;;;;;;8.00;1.73;;;;;;;;;;4971628;28;20031;-63
2022/11/01 15:36:07;;;;;;;11.05;1.85;;;;;;;;;;4971687;28;20063;-62
2022/11/01 15:38:51;;;;;;;11.75;1.95;;;;;;;;;;4971823;28;20471;-63
2022/11/01 15:41:35;;;;;;;12.45;1.58;;;;;;;;;;4971570;28;20080;-62
2022/11/01 15:44:19;;;;;;;7.43;1.50;;;;;;;;;;4972966;28;20080;-63
2022/11/01 15:47:05;;;;;;;8.27;1.50;;;;;;;;;;4972726;28;20850;-64
2022/11/01 15:49:49;;;;;;;12.38;1.80;;;;;;;;;;4972850;28;20015;-63
2022/11/01 15:52:33;;;;;;;10.43;1.80;;;;;;;;;;4972521;28;20068;-63
2022/11/01 15:55:17;;;;;;;7.65;1.35;;;;;;;;;;4972957;28;20100;-63
2022/11/01 15:58:05;;;;;;;13.77;1.60;;;;;;;;;;4972786;28;20533;-64
2022/11/01 16:00:49;;;;;;;12.47;2.03;;;;;;;;;;4972644;28;20050;-62
2022/11/01 16:03:33;;;;;;;10.10;1.70;;;;;;;;;;4972764;28;20046;-62
2022/11/01 16:06:17;;;;;;;13.50;1.87;;;;;;;;;;4972293;28;20160;-62
2022/11/01 16:09:01;;;;;;;14.53;1.97;;;;;;;;;;4972593;28;20062;-62
2022/11/01 16:11:45;;;;;;;11.93;1.93;;;;;;;;;;4968778;28;20035;-63
2022/11/01 16:14:29;;;;;;;11.63;1.70;;;;;;;;;;5015115;28;20100;-62
2022/11/01 16:17:12;;;;;;;9.77;1.60;;;;;;;;;;4973376;28;20045;-62